Terminal Aerodrome Forecast
Issued by NWS Paducah, KY

Home | Current Version | Previous Version | Text Only | Print | Product List | Glossary On
Versions: 1 2 3 4 5 6 7 8 9 10 11 12
115
FTUS43 KPAH 212321
TAFEVV
TAF
KEVV 212321Z 2200/2224 29006KT P6SM SCT040 BKN120
      TEMPO 2200/2202 33010G20KT
     FM220200 34009G15KT P6SM SKC
     FM220900 35006KT P6SM SCT250=

USA.gov is the U.S. government's official web portal to all federal, state and local government web resources and services.